地図

経路データ

SID SEASON NUMBER BASIN SUBBASIN NAME ISO_TIME NATURE LAT LON WMO_WIND WMO_PRES WMO_AGENCY TRACK_TYPE DIST2LAND LANDFALL IFLAG USA_AGENCY USA_ATCF_ID USA_LAT USA_LON USA_RECORD USA_STATUS USA_WIND USA_PRES USA_SSHS USA_R34_NE USA_R34_SE USA_R34_SW USA_R34_NW USA_R50_NE USA_R50_SE USA_R50_SW USA_R50_NW USA_R64_NE USA_R64_SE USA_R64_SW USA_R64_NW USA_POCI USA_ROCI USA_RMW USA_EYE TOKYO_LAT TOKYO_LON TOKYO_GRADE TOKYO_WIND TOKYO_PRES TOKYO_R50_DIR TOKYO_R50_LONG TOKYO_R50_SHORT TOKYO_R30_DIR TOKYO_R30_LONG TOKYO_R30_SHORT TOKYO_LAND CMA_LAT CMA_LON CMA_CAT CMA_WIND CMA_PRES HKO_LAT HKO_LON HKO_CAT HKO_WIND HKO_PRES NEWDELHI_LAT NEWDELHI_LON NEWDELHI_GRADE NEWDELHI_WIND NEWDELHI_PRES NEWDELHI_CI NEWDELHI_DP NEWDELHI_POCI REUNION_LAT REUNION_LON REUNION_TYPE REUNION_WIND REUNION_PRES REUNION_TNUM REUNION_CI REUNION_RMW REUNION_R34_NE REUNION_R34_SE REUNION_R34_SW REUNION_R34_NW REUNION_R50_NE REUNION_R50_SE REUNION_R50_SW REUNION_R50_NW REUNION_R64_NE REUNION_R64_SE REUNION_R64_SW REUNION_R64_NW BOM_LAT BOM_LON BOM_TYPE BOM_WIND BOM_PRES BOM_TNUM BOM_CI BOM_RMW BOM_R34_NE BOM_R34_SE BOM_R34_SW BOM_R34_NW BOM_R50_NE BOM_R50_SE BOM_R50_SW BOM_R50_NW BOM_R64_NE BOM_R64_SE BOM_R64_SW BOM_R64_NW BOM_ROCI BOM_POCI BOM_EYE BOM_POS_METHOD BOM_PRES_METHOD NADI_LAT NADI_LON NADI_CAT NADI_WIND NADI_PRES WELLINGTON_LAT WELLINGTON_LON WELLINGTON_WIND WELLINGTON_PRES DS824_LAT DS824_LON DS824_STAGE DS824_WIND DS824_PRES TD9636_LAT TD9636_LON TD9636_STAGE TD9636_WIND TD9636_PRES TD9635_LAT TD9635_LON TD9635_WIND TD9635_PRES TD9635_ROCI NEUMANN_LAT NEUMANN_LON NEUMANN_CLASS NEUMANN_WIND NEUMANN_PRES MLC_LAT MLC_LON MLC_CLASS MLC_WIND MLC_PRES USA_GUST BOM_GUST BOM_GUST_PER REUNION_GUST REUNION_GUST_PER USA_SEAHGT USA_SEARAD_NE USA_SEARAD_SE USA_SEARAD_SW USA_SEARAD_NW STORM_SPEED STORM_DIR
2013290N14153 2013 81 WP MM NOT_NAMED 2013-10-17 00:00:00 NR 13.8000 152.600 main 1858 1858 O_____________ jtwc_wp WP272013 13.8000 152.600 DB 15 1010 -3 8 31
2013290N14153 2013 81 WP MM NOT_NAMED 2013-10-17 03:00:00 NR 14.1300 152.798 main 1893 1893 P_____________ WP272013 14.1300 152.798 DB 15 1010 -3 8 27
2013290N14153 2013 81 WP MM NOT_NAMED 2013-10-17 06:00:00 TS 14.5000 152.975 main 1940 1940 O_O___________ jtwc_wp WP272013 14.5000 153.000 DB 15 1010 -3 14.5000 152.900 1 25 1006 9 21
2013290N14153 2013 81 WP MM NOT_NAMED 2013-10-17 09:00:00 TS 14.9650 153.131 main 1997 1997 P_P___________ WP272013 14.9350 153.195 DB 15 1010 -3 15.0250 153.002 1 25 1006 10 14
2013290N14153 2013 81 WP MM NOT_NAMED 2013-10-17 12:00:00 TS 15.4429 153.214 main 2043 2043 O_O___________ jtwc_wp WP272013 15.4000 153.300 DB 15 1010 -3 15.5000 153.100 1 25 1006 9 5
2013290N14153 2013 81 WP MM NOT_NAMED 2013-10-17 15:00:00 TS 15.8725 153.209 main 2098 2098 P_P___________ WP272013 15.8575 153.238 DB 17 1008 -3 15.8875 153.180 1 25 1006 8 356
2013290N14153 2013 81 WP MM NOT_NAMED 2013-10-17 18:00:00 TS 16.2500 153.150 main 2143 2130 O_O___________ jtwc_wp WP272013 16.3000 153.100 DB 20 1007 -3 16.2000 153.200 1 25 1006 7 349
2013290N14153 2013 81 WP MM NOT_NAMED 2013-10-17 21:00:00 TS 16.5825 153.065 main 2175 2174 P_P___________ WP272013 16.7150 153.007 DB 22 1005 -3 16.4500 153.123 1 25 1005 7 344
2013290N14153 2013 81 WP MM NOT_NAMED 2013-10-18 00:00:00 TS 16.9000 152.950 main 2207 2206 O_O___________ jtwc_wp WP272013 17.1000 152.900 TD 25 1004 -1 16.7000 153.000 1 25 1004 7 341
2013290N14153 2013 81 WP MM NOT_NAMED 2013-10-18 03:00:00 TS 17.2425 152.829 main 2238 2238 P_P___________ WP272013 17.4650 152.750 TD 25 1004 -1 17.0200 152.907 1 25 1004 7 341
2013290N14153 2013 81 WP MM NOT_NAMED 2013-10-18 06:00:00 TS 17.6000 152.700 main 2281 2266 O_O___________ jtwc_wp WP272013 17.8000 152.600 TD 25 1004 -1 17.4000 152.800 1 25 1004 8 342
2013290N14153 2013 81 WP MM NOT_NAMED 2013-10-18 09:00:00 TS 17.9825 152.575 main 2266 2232 P_P___________ WP272013 18.1075 152.492 TD 25 1004 -1 17.8575 152.658 1 25 1004 8 343
2013290N14153 2013 81 WP MM NOT_NAMED 2013-10-18 12:00:00 TS 18.3500 152.450 main 2222 2182 O_O___________ jtwc_wp WP272013 18.4000 152.400 TD 25 1004 -1 1009 100 45 18.3000 152.500 1 25 1004 7 342
2013290N14153 2013 81 WP MM NOT_NAMED 2013-10-18 15:00:00 TS 18.6724 152.340 main 2182 2158 P_P___________ WP272013 18.7149 152.322 TD 25 1004 -1 1008 100 45 18.6300 152.357 1 25 1004 6 338
2013290N14153 2013 81 WP MM NOT_NAMED 2013-10-18 18:00:00 TS 18.9500 152.200 main 2148 2118 O_O___________ jtwc_wp WP272013 19.0000 152.200 TD 25 1004 -1 1008 100 45 18.9000 152.200 1 25 1004 6 326
2013290N14153 2013 81 WP MM NOT_NAMED 2013-10-18 21:00:00 TS 19.1675 151.994 main 2118 2088 P_P___________ WP272013 19.1850 151.972 TD 25 1004 -1 1008 100 45 19.1500 152.015 1 25 1004 6 317
2013290N14153 2013 81 WP MM NOT_NAMED 2013-10-19 00:00:00 TS 19.4000 151.750 main 2088 2043 O_O___________ jtwc_wp WP272013 19.4000 151.700 TD 25 1004 -1 1008 100 45 19.4000 151.800 1 25 1004 7 322
2013290N14153 2013 81 WP MM NOT_NAMED 2013-10-19 03:00:00 TS 19.7273 151.530 main 2043 1994 P_P___________ WP272013 19.7774 151.472 TD 27 1002 -1 1008 115 45 19.6773 151.587 1 27 1003 8 326
2013290N14153 2013 81 WP MM NOT_NAMED 2013-10-19 06:00:00 TS 20.1000 151.250 main 1994 1944 O_O___________ jtwc_wp WP272013 20.2000 151.200 TD 30 1000 -1 1008 130 45 20.0000 151.300 1 29 1002 10 321
2013290N14153 2013 81 WP MM NOT_NAMED 2013-10-19 09:00:00 TS 20.4672 150.888 main 1934 1879 P_P___________ WP272013 20.5496 150.867 TD 30 1000 -1 1008 130 45 20.3848 150.910 1 29 1002 11 313
2013290N14153 2013 81 WP MM NOT_NAMED 2013-10-19 12:00:00 TS 20.8500 150.400 main 1869 1808 O_O___________ jtwc_wp WP272013 20.9000 150.400 TD 30 1000 -1 1008 130 45 20.8000 150.400 1 29 1002 13 307
2013290N14153 2013 81 WP MM NOT_NAMED 2013-10-19 15:00:00 TS 21.2460 149.788 main 1808 1734 P_P___________ WP272013 21.2924 149.767 TD 30 1000 -1 1007 130 45 21.1997 149.810 1 29 1002 15 302
2013290N14153 2013 81 WP MM NOT_NAMED 2013-10-19 18:00:00 TS 21.6500 149.050 main 1724 1655 O_O___________ jtwc_wp WP272013 21.7000 149.000 TD 30 1000 -1 1007 130 45 21.6000 149.100 1 29 1002 17 298
2013290N14153 2013 81 WP MM NOT_NAMED 2013-10-19 21:00:00 TS 22.0276 148.214 main 1650 1573 P_P___________ WP272013 22.0776 148.157 TD 27 1002 -1 1007 130 45 21.9776 148.272 1 29 1002 18 297
2013290N14153 2013 81 WP MM NOT_NAMED 2013-10-20 00:00:00 TS 22.4500 147.350 main 1563 1488 O_O___________ jtwc_wp WP272013 22.5000 147.300 TD 25 1004 -1 1007 130 45 22.4000 147.400 1 29 1002 18 302
2013290N14153 2013 81 WP MM NOT_NAMED 2013-10-20 03:00:00 TS 22.9769 146.567 main 1478 1394 P_P___________ WP272013 23.0269 146.535 TD 25 1004 -1 1007 130 45 22.9269 146.600 1 29 1002 18 308
2013290N14153 2013 81 WP MM NOT_NAMED 2013-10-20 06:00:00 TS 23.5500 145.800 main 1383 1312 O_O___________ jtwc_wp WP272013 23.6000 145.800 TD 25 1004 -1 1007 130 45 23.5000 145.800 1 29 1002 18 307
2013290N14153 2013 81 WP MM NOT_NAMED 2013-10-20 09:00:00 TS 24.0740 144.962 main 1301 1221 P_P___________ WP272013 24.1199 145.027 TD 25 1004 -1 1007 125 45 24.0280 144.897 1 29 1002 18 307
2013290N14153 2013 81 WP MM NOT_NAMED 2013-10-20 12:00:00 TS 24.6500 144.200 main 1211 1128 O_O___________ jtwc_wp WP272013 24.7000 144.300 TD 25 1004 -1 1008 120 45 24.6000 144.100 1 29 1002 17 315
2013290N14153 2013 81 WP MM NOT_NAMED 2013-10-20 15:00:00 TS 25.3071 143.610 main 1128 1031 P_P___________ WP272013 25.3899 143.640 TD 25 1004 -1 1007 120 45 25.2243 143.581 1 27 1003 17 327
2013290N14153 2013 81 WP MM NOT_NAMED 2013-10-20 18:00:00 TS 26.1000 143.150 main 1031 920 O_O___________ jtwc_wp WP272013 26.2000 143.100 TD 25 1004 -1 1006 120 45 26.0000 143.200 1 25 1004 20 335
2013290N14153 2013 81 WP MM NOT_NAMED 2013-10-20 21:00:00 TS 27.0728 142.678 main 909 805 P_P___________ WP272013 27.1328 142.645 TD 25 1004 -1 1006 120 45 27.0127 142.712 1 25 1004 21 342
2013290N14153 2013 81 WP MM NOT_NAMED 2013-10-21 00:00:00 TS 28.1000 142.400 main 794 698 O_O___________ jtwc_wp WP272013 28.1000 142.400 TD 25 1004 -1 1007 120 45 28.1000 142.400 1 25 1004 20 353
2013290N14153 2013 81 WP MM NOT_NAMED 2013-10-21 03:00:00 TS 29.0432 142.385 main 698 608 O_P___________ jtwc_wp WP272013 29.0000 142.400 TD 25 1004 -1 1007 120 45 29.0865 142.370 1 25 1004 19 4
2013290N14153 2013 81 WP MM NOT_NAMED 2013-10-21 06:00:00 TS 29.9500 142.550 main 602 550 O_O___________ jtwc_wp WP272013 29.9000 142.400 TD 25 1004 -1 1007 120 45 30.0000 142.700 1 25 1004 18 20
2013290N14153 2013 81 WP MM NOT_NAMED 2013-10-21 09:00:00 TS 30.7685 143.119 main 545 531 P_P___________ WP272013 30.6232 142.810 TD 25 1004 -1 1007 120 45 30.9138 143.429 1 25 1004 18 39
2013290N14153 2013 81 WP MM NOT_NAMED 2013-10-21 12:00:00 TS 31.3500 143.850 main 533 530 O_O___________ jtwc_wp WP272013 31.1000 143.400 TD 25 1004 -1 1007 120 45 31.6000 144.300 1 25 1004 14 51
2013290N14153 2013 81 WP MM NOT_NAMED 2013-10-21 15:00:00 TS 31.6142 144.359 main 546 544 P_P___________ WP272013 31.3013 143.749 TD 22 1005 -1 1007 120 45 31.9271 144.969 1 25 1004 10 67
2013290N14153 2013 81 WP MM NOT_NAMED 2013-10-21 18:00:00 MX 31.7429 144.943 main 570 569 O_O___________ jtwc_wp WP272013 31.4000 144.200 EX 20 1007 -4 1007 120 45 32.0000 145.500 1 25 1004 11 77
2013290N14153 2013 81 WP MM NOT_NAMED 2013-10-21 21:00:00 MX 31.8612 145.571 main 605 605 P_P___________ WP272013 31.6097 144.953 EX 20 1007 -4 1007 120 45 31.9869 145.881 1 25 1004 10 81
2013290N14153 2013 81 WP MM NOT_NAMED 2013-10-22 00:00:00 MX 31.9000 146.125 main 639 639 O_O___________ jtwc_wp WP272013 31.9000 145.900 EX 20 1007 -4 1007 120 45 31.9000 146.200 1 25 1004 9 92
2013290N14153 2013 81 WP MM NOT_NAMED 2013-10-22 03:00:00 TS 31.8380 146.577 main 682 682 __P___________ WP272013 EX -4 31.8380 146.577 1 25 1004 7 98
2013290N14153 2013 81 WP MM NOT_NAMED 2013-10-22 06:00:00 TS 31.8000 147.000 main 710 __O___________ 31.8000 147.000 1 25 1004 7 96

デジタル台風データ・検索

IBTrACS Databaseについて

本データベースは、米国NOAAが公開する1842年以降の世界の熱帯低気圧のベストトラックデータアーカイブInternational Best Track Archive for Climate Stewardship (IBTrACS)を、ウェブで閲覧しやすい形式に変換したものです。

最終更新日:2021-10-08